Canton Center, Connecticut
Current Conditions -  °F | °C
As of 9:51 PM on Wednesday 26 Nov 2014 (Local Time) from KBDL Reporting Station
Light Snow Light Snow  
Wind Chill: -4°   Ceiling: 800
Heat Index:   Visibility: 1.5mi
Dew Point: -1°   Wind: 17mph
Humidity: 85%   Direction: 360°N
Pressure: 29.74"   Gusts: NA
Location:  41.87°N, 72.91°W
Report Text: KBDL 270251Z 36015KT 1 1/2SM -SN BR BKN008 BKN011 OVC015 02/M01 A2974 RMK AO2 SFC VIS 2 PLE47 SLP073 P0006 60018 T00171006 57004 $
Loading
Personal Weather Stations






























Interactive Weather Map New forecast layout! Learn more

10-Day Weather Forecast

Advertisements
Track Severe Weather on mobile